Time;durP1;ratioP1;P1;durP2;ratioP2;P2;SDS_P1;SDS_P2;PMS_P1;PMS_P2;Temp;Humidity;BMP_temperature;BMP_pressure;BME280_temperature;BME280_humidity;BME280_pressure;Samples;Min_cycle;Max_cycle;Signal;HPM_P1;HPM_P2
2024/02/20 00:01:46;;;;;;;5.33;3.37;;;13.80;66.40;;;;;;4994532;28;20423;-59
2024/02/20 00:04:12;;;;;;;4.40;3.03;;;13.90;66.50;;;;;;4966928;28;20219;-60
2024/02/20 00:06:38;;;;;;;4.50;3.30;;;13.80;66.50;;;;;;4966469;28;20227;-60
2024/02/20 00:09:03;;;;;;;6.03;3.37;;;13.90;66.20;;;;;;4970176;28;20187;-61
2024/02/20 00:11:29;;;;;;;5.47;3.30;;;13.90;66.30;;;;;;5004397;28;20492;-61
2024/02/20 00:13:56;;;;;;;5.20;3.50;;;14.00;66.30;;;;;;5043123;28;20186;-61
2024/02/20 00:16:21;;;;;;;4.30;3.13;;;14.20;65.80;;;;;;5000816;28;20512;-61
2024/02/20 00:18:48;;;;;;;5.00;3.07;;;14.20;65.40;;;;;;4985559;28;20434;-60
2024/02/20 00:21:14;;;;;;;4.40;3.47;;;13.90;66.30;;;;;;5030755;28;20422;-59
2024/02/20 00:23:39;;;;;;;4.37;3.80;;;14.00;66.20;;;;;;4981310;28;21028;-61
2024/02/20 00:26:05;;;;;;;3.97;3.47;;;13.90;66.50;;;;;;4959318;28;20222;-59
2024/02/20 00:28:30;;;;;;;4.30;2.83;;;14.00;66.50;;;;;;4959269;28;20191;-59
2024/02/20 00:30:56;;;;;;;8.63;3.60;;;13.80;66.80;;;;;;4964169;28;20267;-61
2024/02/20 00:33:21;;;;;;;5.73;4.60;;;13.80;67.20;;;;;;4982120;28;20206;-61
2024/02/20 00:35:47;;;;;;;4.07;3.60;;;13.80;67.70;;;;;;4963259;28;20650;-61
2024/02/20 00:38:13;;;;;;;4.03;2.90;;;13.70;67.20;;;;;;4979371;28;20194;-61
2024/02/20 00:40:39;;;;;;;4.10;3.70;;;13.90;66.70;;;;;;4967336;28;20187;-60
2024/02/20 00:43:05;;;;;;;4.67;4.20;;;14.00;66.60;;;;;;4962824;28;20203;-59
2024/02/20 00:45:31;;;;;;;7.73;4.13;;;14.00;66.20;;;;;;4969087;28;21012;-61
2024/02/20 00:47:57;;;;;;;6.00;3.97;;;13.80;66.30;;;;;;4965472;28;20261;-60
2024/02/20 00:50:22;;;;;;;3.83;3.50;;;13.80;66.80;;;;;;4964047;28;20463;-60
2024/02/20 00:52:49;;;;;;;4.63;3.97;;;13.80;66.60;;;;;;4968210;28;20184;-61
2024/02/20 00:55:15;;;;;;;3.93;3.43;;;14.00;66.50;;;;;;5000705;28;20231;-60
2024/02/20 00:57:40;;;;;;;4.07;3.67;;;14.10;66.10;;;;;;4968711;28;20882;-61
2024/02/20 01:00:13;;;;;;;4.27;3.87;;;14.10;66.00;;;;;;4992680;28;20261;-60
2024/02/20 01:02:39;;;;;;;5.93;3.57;;;14.00;66.20;;;;;;4967488;28;20182;-60
2024/02/20 01:05:05;;;;;;;5.33;3.47;;;13.90;66.00;;;;;;4969403;28;20486;-60
2024/02/20 01:07:30;;;;;;;4.17;3.43;;;14.00;66.40;;;;;;4968576;28;21023;-60
2024/02/20 01:09:56;;;;;;;3.90;3.50;;;13.90;66.10;;;;;;4969295;28;20202;-60
2024/02/20 01:12:21;;;;;;;4.10;3.70;;;13.90;66.10;;;;;;4971077;28;20183;-61
2024/02/20 01:14:47;;;;;;;3.60;3.27;;;13.90;66.60;;;;;;5022801;23;20222;-60
2024/02/20 01:17:13;;;;;;;5.27;3.63;;;13.90;66.50;;;;;;5010320;28;20210;-57
2024/02/20 01:19:38;;;;;;;5.00;3.77;;;13.80;66.60;;;;;;5010305;28;20437;-60
2024/02/20 01:22:05;;;;;;;4.60;4.20;;;13.90;66.80;;;;;;5009114;28;20190;-60
2024/02/20 01:24:31;;;;;;;5.40;3.30;;;14.00;67.00;;;;;;5004332;28;20237;-60
2024/02/20 01:26:57;;;;;;;4.03;3.63;;;14.00;66.50;;;;;;5002142;28;20464;-60
2024/02/20 01:29:22;;;;;;;5.77;3.43;;;13.80;66.40;;;;;;5002853;28;20196;-59
2024/02/20 01:31:53;;;;;;;4.00;3.50;;;13.60;67.00;;;;;;5001770;28;20197;-60
2024/02/20 01:34:18;;;;;;;4.30;3.37;;;13.40;67.50;;;;;;5005615;28;20190;-61
2024/02/20 01:36:44;;;;;;;4.30;3.90;;;13.40;68.20;;;;;;5002391;28;20549;-61
2024/02/20 01:39:10;;;;;;;3.57;3.27;;;13.60;68.00;;;;;;5005697;28;20686;-62
2024/02/20 01:41:36;;;;;;;4.90;3.83;;;13.70;67.40;;;;;;5005327;28;20193;-60
2024/02/20 01:44:02;;;;;;;3.67;3.23;;;13.70;67.40;;;;;;5009318;28;20476;-61
2024/02/20 01:46:27;;;;;;;4.20;2.80;;;13.70;67.00;;;;;;5009648;28;20452;-61
2024/02/20 01:48:53;;;;;;;4.27;3.60;;;13.60;67.70;;;;;;5006813;28;20198;-59
2024/02/20 01:51:22;;;;;;;3.83;2.83;;;13.70;67.30;;;;;;5008405;28;20615;-61
2024/02/20 01:53:50;;;;;;;5.20;3.27;;;13.60;67.10;;;;;;5005530;28;20607;-61
2024/02/20 01:56:17;;;;;;;5.07;3.27;;;13.70;66.70;;;;;;5006650;28;20837;-58
2024/02/20 01:58:43;;;;;;;7.03;3.50;;;13.90;66.40;;;;;;5001953;28;20582;-59
2024/02/20 02:01:09;;;;;;;4.50;3.30;;;13.70;66.80;;;;;;4999468;28;20449;-61
2024/02/20 02:03:36;;;;;;;4.90;3.90;;;13.80;66.90;;;;;;4998884;28;20484;-60
2024/02/20 02:06:02;;;;;;;3.87;3.07;;;13.80;67.00;;;;;;5008132;28;20210;-61
2024/02/20 02:08:28;;;;;;;4.53;3.10;;;13.80;66.90;;;;;;5004277;28;20475;-59
2024/02/20 02:10:53;;;;;;;7.30;3.10;;;13.80;67.60;;;;;;5003004;28;20459;-60
2024/02/20 02:13:19;;;;;;;4.33;3.20;;;13.90;67.00;;;;;;5001966;28;20190;-60
2024/02/20 02:15:45;;;;;;;5.13;3.73;;;13.90;67.00;;;;;;5005001;28;20697;-59
2024/02/20 02:18:10;;;;;;;4.53;3.90;;;13.80;66.40;;;;;;5001553;28;20580;-59
2024/02/20 02:20:36;;;;;;;3.73;3.40;;;13.90;66.60;;;;;;5002973;28;20186;-59
2024/02/20 02:23:01;;;;;;;5.20;3.50;;;13.90;66.40;;;;;;5002851;28;20217;-59
2024/02/20 02:25:27;;;;;;;5.50;3.30;;;13.80;66.50;;;;;;5007622;28;20221;-60
2024/02/20 02:27:53;;;;;;;3.60;3.30;;;13.80;66.70;;;;;;5005200;28;20202;-61
2024/02/20 02:30:19;;;;;;;4.77;3.87;;;13.70;66.60;;;;;;5008855;28;20281;-61
2024/02/20 02:32:45;;;;;;;6.97;3.97;;;13.60;67.40;;;;;;5002231;28;20483;-58
2024/02/20 02:35:11;;;;;;;6.57;3.20;;;13.50;67.60;;;;;;5000811;28;20429;-60
2024/02/20 02:37:36;;;;;;;4.57;4.07;;;13.20;68.40;;;;;;5004699;28;20263;-60
2024/02/20 02:40:06;;;;;;;5.20;3.60;;;13.10;69.00;;;;;;5001174;28;20449;-61
2024/02/20 02:42:32;;;;;;;5.93;3.90;;;13.30;68.50;;;;;;5000811;28;20186;-61
2024/02/20 02:44:57;;;;;;;5.30;3.77;;;13.20;68.50;;;;;;5005039;28;20488;-61
2024/02/20 02:47:23;;;;;;;6.40;3.70;;;13.20;68.80;;;;;;5002393;28;20476;-60
2024/02/20 02:49:49;;;;;;;8.10;3.50;;;13.20;68.70;;;;;;4999418;28;20193;-61
2024/02/20 02:52:16;;;;;;;5.50;3.30;;;13.30;68.40;;;;;;5007079;28;20205;-60
2024/02/20 02:54:41;;;;;;;4.00;3.30;;;13.50;67.60;;;;;;5007956;28;20197;-62
2024/02/20 02:57:07;;;;;;;7.63;3.57;;;13.50;67.30;;;;;;5002706;28;20437;-61
2024/02/20 02:59:33;;;;;;;5.10;3.30;;;13.40;66.80;;;;;;5009596;28;20190;-61
2024/02/20 03:02:00;;;;;;;6.43;3.47;;;13.40;66.80;;;;;;5008309;28;20423;-61
2024/02/20 03:04:26;;;;;;;3.20;2.90;;;13.50;66.50;;;;;;5008130;28;20571;-61
2024/02/20 03:06:53;;;;;;;9.33;3.50;;;13.60;66.40;;;;;;5007015;28;20576;-61
2024/02/20 03:09:22;;;;;;;3.07;2.70;;;13.50;66.00;;;;;;5007573;28;20417;-62
2024/02/20 03:11:47;;;;;;;6.50;2.70;;;13.60;65.80;;;;;;5004886;28;20948;-61
2024/02/20 03:14:13;;;;;;;7.03;2.90;;;13.40;65.80;;;;;;5007291;28;20514;-61
2024/02/20 03:16:39;;;;;;;6.90;3.00;;;13.40;66.00;;;;;;5003901;28;20234;-61
2024/02/20 03:19:06;;;;;;;4.80;2.70;;;13.30;65.90;;;;;;5005357;28;20510;-61
2024/02/20 03:21:31;;;;;;;5.20;2.20;;;13.10;65.90;;;;;;5005399;28;20328;-61
2024/02/20 03:23:57;;;;;;;7.30;2.70;;;13.10;66.10;;;;;;5008105;28;20571;-60
2024/02/20 03:26:22;;;;;;;4.40;2.47;;;13.20;65.90;;;;;;5008918;28;20217;-60
2024/02/20 03:28:48;;;;;;;5.17;2.33;;;13.10;65.60;;;;;;5006908;28;20186;-61
2024/02/20 03:31:14;;;;;;;4.93;3.10;;;13.10;65.90;;;;;;5004243;28;20226;-61
2024/02/20 03:33:39;;;;;;;4.03;2.60;;;13.10;65.40;;;;;;5003081;28;20570;-61
2024/02/20 03:36:06;;;;;;;7.03;3.43;;;13.00;65.40;;;;;;5006712;28;20235;-60
2024/02/20 03:38:32;;;;;;;6.37;3.73;;;12.90;64.80;;;;;;5007926;28;20218;-61
2024/02/20 03:40:57;;;;;;;6.70;3.00;;;12.70;65.20;;;;;;5009496;28;21177;-61
2024/02/20 03:43:23;;;;;;;4.07;2.00;;;12.70;65.50;;;;;;5003682;28;20548;-61
2024/02/20 03:45:48;;;;;;;7.83;2.90;;;12.70;65.00;;;;;;5002103;28;20178;-60
2024/02/20 03:48:14;;;;;;;5.90;2.43;;;12.80;64.60;;;;;;5004164;28;20189;-58
2024/02/20 03:50:39;;;;;;;5.07;1.83;;;12.70;64.50;;;;;;5001959;28;20197;-61
2024/02/20 03:53:05;;;;;;;6.13;2.90;;;12.80;64.60;;;;;;5004499;28;20268;-61
2024/02/20 03:55:31;;;;;;;5.47;2.40;;;12.80;64.30;;;;;;5005309;28;20185;-60
2024/02/20 03:57:59;;;;;;;4.93;2.37;;;12.90;64.10;;;;;;5003478;28;20206;-59
2024/02/20 04:00:25;;;;;;;2.73;2.20;;;13.00;64.30;;;;;;5002281;28;20194;-60
2024/02/20 04:02:53;;;;;;;3.50;2.30;;;12.90;64.00;;;;;;5003155;28;20840;-61
2024/02/20 04:05:18;;;;;;;6.43;2.80;;;13.00;64.90;;;;;;5000591;28;20217;-61
2024/02/20 04:07:46;;;;;;;7.03;2.53;;;12.30;64.90;;;;;;4997002;28;21154;-61
2024/02/20 04:10:13;;;;;;;5.93;3.00;;;12.20;67.80;;;;;;5001013;28;20588;-61
2024/02/20 04:12:40;;;;;;;10.60;2.70;;;12.30;67.90;;;;;;5003118;28;20436;-61
2024/02/20 04:15:07;;;;;;;5.70;2.60;;;12.40;67.20;;;;;;5002764;28;20477;-61
2024/02/20 04:17:33;;;;;;;9.57;2.77;;;12.60;66.80;;;;;;5002931;28;20464;-59
2024/02/20 04:20:04;;;;;;;4.63;2.67;;;12.70;66.70;;;;;;5003287;28;20508;-59
2024/02/20 04:22:30;;;;;;;5.40;2.83;;;12.90;66.40;;;;;;5003377;28;20449;-60
2024/02/20 04:24:57;;;;;;;4.77;3.07;;;12.90;66.40;;;;;;5003999;28;20571;-59
2024/02/20 04:27:22;;;;;;;4.20;2.63;;;13.10;66.10;;;;;;5005963;28;20475;-60
2024/02/20 04:29:48;;;;;;;4.70;2.80;;;13.20;65.80;;;;;;5009902;28;20425;-60
2024/02/20 04:32:13;;;;;;;5.90;2.43;;;13.10;66.00;;;;;;5003771;28;20182;-61
2024/02/20 04:34:39;;;;;;;6.67;2.60;;;13.00;66.50;;;;;;5001752;28;20190;-58
2024/02/20 04:37:05;;;;;;;7.87;3.10;;;12.90;66.60;;;;;;5003200;28;20241;-58
2024/02/20 04:39:30;;;;;;;8.80;2.50;;;12.90;66.50;;;;;;5008294;28;20209;-60
2024/02/20 04:41:56;;;;;;;8.03;2.63;;;12.90;66.40;;;;;;5003960;28;20621;-59
2024/02/20 04:44:22;;;;;;;5.77;3.37;;;13.00;66.50;;;;;;5002528;28;20830;-59
2024/02/20 04:46:47;;;;;;;3.67;2.00;;;13.00;65.80;;;;;;5000955;28;20208;-58
2024/02/20 04:49:13;;;;;;;6.70;2.10;;;12.90;65.20;;;;;;5002586;28;20194;-58
2024/02/20 04:51:38;;;;;;;8.47;2.70;;;12.60;65.30;;;;;;5006033;28;20186;-60
2024/02/20 04:54:04;;;;;;;5.83;2.27;;;12.60;65.60;;;;;;5008811;28;20201;-61
2024/02/20 04:56:30;;;;;;;6.80;2.30;;;12.60;65.00;;;;;;5009773;28;20252;-59
2024/02/20 04:58:55;;;;;;;7.47;2.70;;;12.60;65.00;;;;;;5011496;28;20548;-60
2024/02/20 05:01:23;;;;;;;5.13;2.33;;;12.70;64.80;;;;;;5010293;28;20199;-61
2024/02/20 05:03:49;;;;;;;12.80;2.53;;;12.60;64.80;;;;;;5008266;28;20248;-60
2024/02/20 05:06:15;;;;;;;5.63;2.70;;;12.50;64.40;;;;;;5011925;28;20807;-61
2024/02/20 05:08:41;;;;;;;9.07;3.30;;;12.40;65.00;;;;;;5009379;28;20413;-59
2024/02/20 05:11:07;;;;;;;5.20;2.77;;;12.20;65.00;;;;;;5011896;28;20858;-61
2024/02/20 05:13:32;;;;;;;8.13;2.30;;;12.30;65.10;;;;;;5009230;28;20555;-61
2024/02/20 05:15:58;;;;;;;6.90;2.43;;;12.20;64.80;;;;;;5003855;28;20217;-61
2024/02/20 05:18:24;;;;;;;6.27;2.33;;;12.40;64.60;;;;;;5009910;28;20174;-60
2024/02/20 05:20:50;;;;;;;6.43;2.97;;;12.60;64.70;;;;;;5006911;28;20588;-60
2024/02/20 05:23:16;;;;;;;7.77;2.60;;;12.70;63.80;;;;;;5006964;28;20194;-61
2024/02/20 05:25:42;;;;;;;3.73;2.27;;;12.80;63.30;;;;;;5006926;28;20830;-59
2024/02/20 05:28:07;;;;;;;6.47;2.40;;;12.80;63.20;;;;;;5009490;28;20193;-61
2024/02/20 05:30:35;;;;;;;14.90;2.83;;;12.90;62.90;;;;;;5010778;28;20269;-61
2024/02/20 05:33:02;;;;;;;7.20;2.80;;;12.90;63.10;;;;;;5002317;28;20197;-60
2024/02/20 05:35:27;;;;;;;5.30;2.17;;;12.90;62.80;;;;;;5005758;28;21054;-60
2024/02/20 05:37:53;;;;;;;10.30;4.13;;;13.00;62.50;;;;;;5005546;28;20498;-62
2024/02/20 05:40:19;;;;;;;5.77;2.30;;;12.80;62.40;;;;;;5010921;28;20182;-58
2024/02/20 05:42:44;;;;;;;8.27;2.60;;;12.70;62.60;;;;;;5009041;28;20316;-59
2024/02/20 05:45:11;;;;;;;10.93;3.90;;;12.80;62.70;;;;;;5009235;28;20214;-60
2024/02/20 05:47:37;;;;;;;7.00;2.83;;;12.90;62.70;;;;;;5006196;28;20232;-61
2024/02/20 05:50:02;;;;;;;8.17;2.33;;;12.90;62.20;;;;;;5010860;28;20432;-58
2024/02/20 05:52:28;;;;;;;7.20;2.13;;;12.80;62.10;;;;;;5005496;28;20432;-60
2024/02/20 05:54:54;;;;;;;13.20;2.77;;;12.70;62.30;;;;;;5002557;28;20190;-60
2024/02/20 05:57:20;;;;;;;7.30;2.10;;;12.70;62.40;;;;;;5001420;28;20210;-60
2024/02/20 05:59:45;;;;;;;9.00;2.50;;;12.50;62.40;;;;;;5003556;28;20495;-60
2024/02/20 06:02:11;;;;;;;7.33;2.23;;;12.60;62.40;;;;;;5002233;28;20189;-58
2024/02/20 06:04:38;;;;;;;8.93;2.60;;;12.60;62.20;;;;;;5002721;28;20222;-60
2024/02/20 06:07:04;;;;;;;9.00;2.27;;;12.80;62.10;;;;;;5000741;28;20210;-60
2024/02/20 06:09:29;;;;;;;10.23;2.50;;;12.70;61.70;;;;;;5007087;28;20937;-60
2024/02/20 06:11:55;;;;;;;5.17;2.33;;;12.60;62.20;;;;;;5003305;28;20814;-58
2024/02/20 06:14:20;;;;;;;11.23;2.43;;;12.70;61.90;;;;;;5001544;28;20868;-60
2024/02/20 06:16:46;;;;;;;9.30;2.80;;;12.80;61.80;;;;;;5001827;28;20210;-61
2024/02/20 06:19:12;;;;;;;10.00;2.40;;;12.70;61.30;;;;;;5000481;28;20284;-62
2024/02/20 06:21:38;;;;;;;6.90;3.60;;;12.50;61.60;;;;;;5001783;28;20195;-60
2024/02/20 06:24:04;;;;;;;6.80;2.80;;;12.30;62.40;;;;;;5003826;28;20304;-58
2024/02/20 06:26:30;;;;;;;6.33;2.40;;;12.40;62.20;;;;;;5001872;28;20461;-62
2024/02/20 06:28:56;;;;;;;5.83;2.40;;;12.40;62.40;;;;;;5000975;28;20432;-59
2024/02/20 06:31:22;;;;;;;11.23;3.00;;;12.50;62.10;;;;;;5000558;28;20454;-61
2024/02/20 06:33:47;;;;;;;7.00;2.53;;;12.60;62.20;;;;;;4999313;28;20451;-61
2024/02/20 06:36:13;;;;;;;16.03;13.73;;;12.60;62.10;;;;;;5001397;28;20201;-57
2024/02/20 06:38:39;;;;;;;9.90;3.30;;;12.60;62.30;;;;;;5001131;28;20182;-60
2024/02/20 06:41:05;;;;;;;10.77;3.70;;;12.60;62.00;;;;;;5001812;28;20213;-59
2024/02/20 06:43:30;;;;;;;6.50;3.20;;;12.60;62.60;;;;;;5001676;28;22464;-60
2024/02/20 06:45:56;;;;;;;8.23;2.80;;;12.70;61.80;;;;;;5002058;28;20205;-60
2024/02/20 06:48:22;;;;;;;4.03;2.53;;;12.70;61.70;;;;;;5000009;28;20666;-61
2024/02/20 06:50:48;;;;;;;12.40;5.63;;;12.70;61.30;;;;;;5003452;28;20202;-62
2024/02/20 06:53:14;;;;;;;19.27;10.60;;;12.70;61.60;;;;;;5008270;28;20441;-60
2024/02/20 06:55:40;;;;;;;27.83;14.73;;;12.70;61.50;;;;;;5008493;28;20318;-60
2024/02/20 06:58:05;;;;;;;8.70;4.47;;;12.70;61.50;;;;;;5006409;28;20774;-59
2024/02/20 07:00:31;;;;;;;12.00;3.10;;;12.90;61.40;;;;;;5006758;28;20186;-60
2024/02/20 07:02:56;;;;;;;10.93;2.90;;;13.00;61.00;;;;;;5010510;28;20269;-59
2024/02/20 07:05:22;;;;;;;11.53;3.10;;;13.00;60.50;;;;;;5005636;28;20244;-61
2024/02/20 07:07:48;;;;;;;7.10;2.83;;;12.90;60.90;;;;;;5008804;28;20198;-59
2024/02/20 07:10:13;;;;;;;8.10;3.07;;;12.90;61.10;;;;;;5007820;28;20756;-59
2024/02/20 07:12:39;;;;;;;13.90;2.73;;;12.80;61.10;;;;;;5008750;28;20251;-60
2024/02/20 07:15:06;;;;;;;10.10;3.50;;;12.60;61.30;;;;;;5003668;28;20576;-61
2024/02/20 07:17:35;;;;;;;20.53;6.13;;;12.50;62.70;;;;;;5009091;28;20214;-58
2024/02/20 07:20:02;;;;;;;12.60;3.40;;;12.40;62.50;;;;;;5007540;28;20418;-60
2024/02/20 07:22:29;;;;;;;7.73;2.63;;;12.50;62.40;;;;;;5007225;28;20474;-59
2024/02/20 07:24:55;;;;;;;9.97;3.50;;;12.50;61.80;;;;;;5005386;28;20484;-60
2024/02/20 07:27:21;;;;;;;11.00;3.37;;;12.70;62.00;;;;;;5007121;28;20822;-60
2024/02/20 07:29:48;;;;;;;7.47;2.70;;;12.70;61.80;;;;;;5009311;28;20189;-58
2024/02/20 07:32:13;;;;;;;5.30;2.47;;;12.60;62.20;;;;;;5008063;28;20190;-59
2024/02/20 07:34:39;;;;;;;9.73;3.07;;;12.70;61.80;;;;;;5004672;28;20968;-60
2024/02/20 07:37:05;;;;;;;10.10;3.60;;;12.70;61.30;;;;;;5008147;28;20202;-61
2024/02/20 07:39:31;;;;;;;5.47;2.40;;;12.70;61.60;;;;;;5001656;28;20210;-59
2024/02/20 07:41:56;;;;;;;8.90;2.53;;;12.60;61.90;;;;;;5006207;28;20189;-59
2024/02/20 07:44:22;;;;;;;7.73;2.70;;;12.70;61.80;;;;;;5007059;28;20476;-61
2024/02/20 07:46:48;;;;;;;12.70;2.80;;;12.50;61.10;;;;;;5009118;28;20210;-59
2024/02/20 07:49:14;;;;;;;7.60;2.97;;;12.50;61.80;;;;;;5001115;28;20286;-59
2024/02/20 07:51:39;;;;;;;8.00;2.80;;;12.70;62.00;;;;;;5011332;28;20185;-58
2024/02/20 07:54:05;;;;;;;12.10;2.93;;;12.70;61.50;;;;;;5007861;28;20540;-60
2024/02/20 07:56:31;;;;;;;7.10;2.33;;;12.60;61.70;;;;;;5011422;28;20206;-58
2024/02/20 07:58:57;;;;;;;6.13;2.80;;;12.70;62.10;;;;;;5012572;28;20679;-60
2024/02/20 08:01:24;;;;;;;11.83;2.67;;;12.70;61.80;;;;;;5011349;28;20190;-59
2024/02/20 08:03:52;;;;;;;4.93;2.27;;;12.70;61.40;;;;;;5014354;28;20480;-59
2024/02/20 08:06:19;;;;;;;10.37;3.40;;;12.80;61.30;;;;;;5009669;28;20476;-61
2024/02/20 08:08:45;;;;;;;14.00;3.03;;;13.00;61.60;;;;;;5009826;28;20437;-59
2024/02/20 08:11:10;;;;;;;16.03;8.87;;;12.80;61.20;;;;;;5012813;28;20429;-55
2024/02/20 08:13:50;;;;;;;6.47;2.70;;;12.80;61.70;;;;;;5009608;28;20551;-55
2024/02/20 08:16:16;;;;;;;7.97;2.77;;;12.80;61.70;;;;;;5007730;28;20217;-58
2024/02/20 08:18:42;;;;;;;11.60;3.77;;;12.90;61.20;;;;;;5003051;28;20456;-59
2024/02/20 08:21:10;;;;;;;8.90;4.00;;;13.00;61.20;;;;;;5005940;28;20457;-61
2024/02/20 08:23:39;;;;;;;6.20;2.70;;;13.20;61.10;;;;;;5005412;28;20495;-58
2024/02/20 08:26:05;;;;;;;6.77;2.80;;;13.20;61.10;;;;;;5009619;28;20468;-60
2024/02/20 08:28:31;;;;;;;7.43;3.20;;;13.40;61.30;;;;;;5003008;28;20445;-60
2024/02/20 08:30:57;;;;;;;9.03;3.40;;;13.20;59.90;;;;;;5008498;28;20953;-61
2024/02/20 08:33:23;;;;;;;6.47;2.60;;;13.20;60.50;;;;;;5007625;28;20433;-57
2024/02/20 08:35:49;;;;;;;9.57;2.67;;;13.30;60.70;;;;;;5008570;28;20443;-58
2024/02/20 08:38:15;;;;;;;9.83;2.50;;;13.30;59.70;;;;;;5007047;28;20181;-59
2024/02/20 08:40:42;;;;;;;6.77;2.90;;;13.40;60.10;;;;;;5011324;28;20194;-60
2024/02/20 08:43:07;;;;;;;7.17;2.77;;;13.50;60.10;;;;;;5007859;28;22177;-58
2024/02/20 08:45:33;;;;;;;6.60;2.73;;;13.40;60.20;;;;;;5007810;28;20538;-59
2024/02/20 08:48:01;;;;;;;8.70;2.90;;;13.60;60.20;;;;;;5005401;28;20214;-58
2024/02/20 08:50:29;;;;;;;9.97;3.43;;;13.70;60.50;;;;;;5010454;28;20198;-60
2024/02/20 08:52:55;;;;;;;7.33;3.33;;;13.90;59.10;;;;;;5011075;28;20445;-59
2024/02/20 08:55:20;;;;;;;15.80;4.20;;;14.00;59.50;;;;;;5010534;28;20429;-60
2024/02/20 08:57:46;;;;;;;8.40;3.27;;;13.90;58.70;;;;;;4999325;28;20210;-59
2024/02/20 09:00:12;;;;;;;10.20;4.67;;;13.90;59.10;;;;;;5009910;28;20609;-59
2024/02/20 09:02:41;;;;;;;8.87;3.07;;;13.70;58.90;;;;;;5010172;28;20265;-59
2024/02/20 09:05:11;;;;;;;13.10;2.83;;;13.90;59.20;;;;;;5014426;28;20491;-57
2024/02/20 09:07:37;;;;;;;12.67;3.40;;;13.80;59.00;;;;;;5013429;28;20432;-58
2024/02/20 09:10:03;;;;;;;8.87;3.00;;;13.80;59.50;;;;;;5016150;28;20927;-59
2024/02/20 09:12:29;;;;;;;8.83;3.13;;;13.90;59.10;;;;;;5009223;28;20657;-59
2024/02/20 09:14:55;;;;;;;12.40;3.90;;;14.00;59.10;;;;;;5008042;28;20456;-59
2024/02/20 09:17:21;;;;;;;10.03;3.43;;;13.90;58.40;;;;;;5001675;28;20475;-60
2024/02/20 09:19:47;;;;;;;15.47;3.67;;;13.90;58.50;;;;;;5005648;28;20445;-59
2024/02/20 09:22:14;;;;;;;10.80;3.57;;;14.00;58.90;;;;;;5007589;28;20186;-59
2024/02/20 09:24:40;;;;;;;14.77;3.13;;;14.10;58.70;;;;;;5007287;28;20248;-60
2024/02/20 09:27:06;;;;;;;9.00;3.10;;;14.30;58.30;;;;;;5008923;28;20497;-58
2024/02/20 09:29:32;;;;;;;10.37;2.90;;;14.40;57.70;;;;;;5006523;28;20451;-58
2024/02/20 09:32:02;;;;;;;14.27;4.27;;;14.30;57.40;;;;;;5008212;28;20186;-60
2024/02/20 09:34:28;;;;;;;11.33;3.10;;;14.40;57.70;;;;;;5009834;28;20428;-60
2024/02/20 09:36:54;;;;;;;11.60;3.57;;;14.10;57.20;;;;;;5005060;28;21043;-57
2024/02/20 09:39:23;;;;;;;11.97;3.07;;;13.80;57.30;;;;;;5010553;28;20186;-57
2024/02/20 09:41:52;;;;;;;18.67;3.60;;;13.90;57.60;;;;;;5008642;28;20519;-56
2024/02/20 09:44:19;;;;;;;10.17;3.33;;;13.90;58.00;;;;;;5010014;28;20487;-62
2024/02/20 09:46:53;;;;;;;10.17;2.67;;;14.10;57.90;;;;;;5005673;28;20460;-59
2024/02/20 09:49:22;;;;;;;11.57;3.67;;;14.20;58.10;;;;;;5010198;28;20432;-59
2024/02/20 09:51:49;;;;;;;6.80;2.70;;;14.10;57.40;;;;;;5002887;28;20470;-58
2024/02/20 09:54:15;;;;;;;12.23;3.40;;;14.10;57.90;;;;;;5009554;28;20463;-58
2024/02/20 09:56:42;;;;;;;7.70;2.90;;;14.10;58.10;;;;;;5006038;28;20449;-57
2024/02/20 09:59:09;;;;;;;12.53;3.90;;;14.20;58.00;;;;;;5008919;28;20855;-55
2024/02/20 10:01:38;;;;;;;11.23;3.67;;;13.80;57.80;;;;;;5007896;28;20449;-60
2024/02/20 10:04:07;;;;;;;9.63;3.83;;;13.90;58.50;;;;;;5009728;28;20542;-59
2024/02/20 10:06:32;;;;;;;7.07;2.80;;;14.10;57.30;;;;;;5007301;28;20464;-61
2024/02/20 10:08:58;;;;;;;10.30;3.37;;;14.20;57.10;;;;;;5008622;28;20972;-57
2024/02/20 10:11:24;;;;;;;12.10;3.97;;;14.20;57.10;;;;;;5010308;28;20214;-57
2024/02/20 10:13:51;;;;;;;9.80;3.50;;;14.50;57.50;;;;;;5007777;28;20252;-60
2024/02/20 10:16:17;;;;;;;10.20;3.20;;;14.80;57.40;;;;;;5006520;28;20218;-57
2024/02/20 10:18:43;;;;;;;7.80;3.30;;;15.00;55.00;;;;;;5004154;28;20445;-58
2024/02/20 10:21:09;;;;;;;8.67;3.53;;;15.10;54.70;;;;;;5009443;28;20479;-59
2024/02/20 10:23:35;;;;;;;5.60;2.80;;;15.10;54.50;;;;;;5006802;28;20186;-60
2024/02/20 10:26:01;;;;;;;9.23;3.10;;;15.10;54.10;;;;;;5007009;28;20848;-57
2024/02/20 10:28:28;;;;;;;12.87;3.00;;;15.00;53.50;;;;;;5005650;28;20201;-59
2024/02/20 10:30:55;;;;;;;9.00;3.50;;;15.00;52.90;;;;;;5009062;28;20447;-59
2024/02/20 10:33:21;;;;;;;11.33;3.10;;;15.00;53.20;;;;;;5009531;28;20822;-60
2024/02/20 10:35:47;;;;;;;6.60;2.77;;;15.20;53.50;;;;;;5004966;28;21015;-60
2024/02/20 10:38:18;;;;;;;10.63;4.07;;;15.40;53.90;;;;;;5008641;28;20536;-63
2024/02/20 10:40:44;;;;;;;8.60;3.40;;;15.60;52.80;;;;;;5003348;28;20178;-60
2024/02/20 10:43:11;;;;;;;10.10;3.07;;;15.80;52.40;;;;;;5006704;28;20459;-58
2024/02/20 10:45:38;;;;;;;13.53;3.20;;;16.00;52.40;;;;;;5004316;28;20245;-59
2024/02/20 10:48:06;;;;;;;9.73;3.13;;;16.30;52.70;;;;;;5007943;28;20440;-59
2024/02/20 10:50:34;;;;;;;9.50;3.20;;;16.60;52.60;;;;;;5002444;28;20528;-59
2024/02/20 10:53:00;;;;;;;6.77;2.90;;;16.70;51.40;;;;;;5007530;28;20444;-59
2024/02/20 10:55:26;;;;;;;13.43;3.70;;;16.80;51.20;;;;;;5008875;28;20521;-60
2024/02/20 10:57:53;;;;;;;9.30;2.57;;;16.80;50.50;;;;;;5006935;28;21059;-61
2024/02/20 11:00:19;;;;;;;10.60;3.70;;;16.70;50.60;;;;;;5007264;28;20544;-58
2024/02/20 11:02:46;;;;;;;7.70;3.10;;;16.80;50.10;;;;;;5007682;28;20508;-59
2024/02/20 11:05:13;;;;;;;14.80;3.50;;;16.70;49.80;;;;;;5006494;28;20305;-61
2024/02/20 11:07:39;;;;;;;16.90;3.30;;;16.70;50.80;;;;;;5004643;28;20465;-58
2024/02/20 11:10:16;;;;;;;13.27;4.63;;;16.70;50.30;;;;;;5003726;28;20503;-60
2024/02/20 11:12:42;;;;;;;13.97;3.30;;;16.80;50.80;;;;;;5006852;28;20429;-59
2024/02/20 11:15:17;;;;;;;10.67;2.93;;;16.80;51.20;;;;;;5005596;28;20444;-60
2024/02/20 11:17:43;;;;;;;9.73;3.10;;;16.90;50.40;;;;;;5005146;28;20712;-60
2024/02/20 11:20:37;;;;;;;10.20;3.10;;;16.90;50.80;;;;;;5008316;28;20433;-59
2024/02/20 11:23:10;;;;;;;11.43;4.80;;;17.00;50.40;;;;;;5001087;28;20693;-60
2024/02/20 11:25:37;;;;;;;14.00;2.80;;;17.10;49.80;;;;;;5008183;28;20476;-60
2024/02/20 11:28:14;;;;;;;10.33;3.30;;;17.20;49.00;;;;;;5004301;28;20440;-58
2024/02/20 11:30:39;;;;;;;6.80;2.83;;;17.20;48.60;;;;;;5000460;28;20452;-60
2024/02/20 11:33:13;;;;;;;11.63;3.27;;;17.10;48.70;;;;;;5004699;28;20452;-62
2024/02/20 11:35:39;;;;;;;9.50;2.90;;;16.90;48.10;;;;;;5006698;28;20448;-61
2024/02/20 11:38:06;;;;;;;6.13;2.80;;;17.00;48.50;;;;;;5006466;28;20456;-61
2024/02/20 11:40:33;;;;;;;5.20;2.00;;;17.00;47.60;;;;;;5004686;28;20186;-61
2024/02/20 11:43:06;;;;;;;11.50;2.70;;;17.10;48.00;;;;;;5001838;28;21022;-60
2024/02/20 11:45:33;;;;;;;6.13;2.30;;;17.10;48.80;;;;;;5009685;28;20571;-60
2024/02/20 11:48:03;;;;;;;6.00;1.87;;;17.20;48.40;;;;;;5006840;28;20935;-60
2024/02/20 11:50:30;;;;;;;6.17;2.40;;;17.20;46.90;;;;;;5003385;28;20466;-61
2024/02/20 11:53:02;;;;;;;6.67;3.33;;;17.30;46.40;;;;;;5008847;28;20860;-61
2024/02/20 11:55:28;;;;;;;5.10;2.23;;;17.00;48.10;;;;;;5005458;28;20428;-61
2024/02/20 11:57:54;;;;;;;9.37;2.90;;;17.10;47.90;;;;;;5002914;28;20471;-61
2024/02/20 12:00:21;;;;;;;8.10;2.50;;;17.10;47.70;;;;;;5006630;28;20198;-62
2024/02/20 12:02:52;;;;;;;6.50;2.80;;;17.20;48.40;;;;;;5005914;28;20420;-62
2024/02/20 12:05:25;;;;;;;6.43;2.50;;;17.40;47.90;;;;;;5002491;28;20472;-59
2024/02/20 12:07:51;;;;;;;7.77;3.33;;;17.40;47.30;;;;;;4996735;28;20474;-60
2024/02/20 12:10:20;;;;;;;9.33;2.50;;;17.60;47.50;;;;;;5007349;28;20440;-60
2024/02/20 12:12:46;;;;;;;4.70;1.93;;;17.70;46.70;;;;;;5008077;28;20948;-61
2024/02/20 12:15:14;;;;;;;9.13;3.00;;;17.70;46.30;;;;;;5003417;28;20446;-61
2024/02/20 12:17:44;;;;;;;5.47;2.40;;;17.40;44.70;;;;;;5007817;28;20479;-60
2024/02/20 12:20:11;;;;;;;6.57;2.50;;;17.30;45.60;;;;;;5003933;28;20434;-60
2024/02/20 12:22:41;;;;;;;8.23;2.50;;;17.30;45.00;;;;;;5005850;28;20871;-62
2024/02/20 12:25:17;;;;;;;8.50;2.43;;;17.30;45.10;;;;;;5002444;28;20503;-62
2024/02/20 12:27:42;;;;;;;7.80;2.60;;;17.30;45.30;;;;;;5004102;28;20476;-61
2024/02/20 12:30:08;;;;;;;3.60;1.83;;;17.20;44.50;;;;;;5007217;28;20453;-61
2024/02/20 12:32:35;;;;;;;5.00;2.10;;;17.10;45.30;;;;;;5008246;28;20568;-61
2024/02/20 12:35:01;;;;;;;9.43;2.63;;;16.90;45.50;;;;;;5009376;28;20456;-58
2024/02/20 12:37:27;;;;;;;10.37;2.70;;;16.90;45.80;;;;;;5007550;28;20460;-60
2024/02/20 12:39:52;;;;;;;4.50;2.60;;;17.00;45.40;;;;;;5009658;28;20966;-61
2024/02/20 12:42:18;;;;;;;8.30;2.40;;;16.90;44.90;;;;;;5011310;28;20604;-59